sensor_id;sensor_type;location;lat;lon;timestamp;P1;durP1;ratioP1;P2;durP2;ratioP2
67751;SDS011;54551;51.068;5.826;2023-03-18T00:00:22;9.67;;;6.60;;
67751;SDS011;54551;51.068;5.826;2023-03-18T00:02:48;10.47;;;6.40;;
67751;SDS011;54551;51.068;5.826;2023-03-18T00:05:14;8.33;;;5.90;;
67751;SDS011;54551;51.068;5.826;2023-03-18T00:07:40;10.20;;;6.90;;
67751;SDS011;54551;51.068;5.826;2023-03-18T00:10:07;11.83;;;5.93;;
67751;SDS011;54551;51.068;5.826;2023-03-18T00:12:35;13.03;;;6.03;;
67751;SDS011;54551;51.068;5.826;2023-03-18T00:15:04;9.67;;;5.97;;
67751;SDS011;54551;51.068;5.826;2023-03-18T00:17:31;7.17;;;5.43;;
67751;SDS011;54551;51.068;5.826;2023-03-18T00:19:57;11.37;;;6.10;;
67751;SDS011;54551;51.068;5.826;2023-03-18T00:22:30;9.93;;;5.47;;
67751;SDS011;54551;51.068;5.826;2023-03-18T00:24:58;12.60;;;6.70;;
67751;SDS011;54551;51.068;5.826;2023-03-18T00:27:24;10.63;;;6.50;;
67751;SDS011;54551;51.068;5.826;2023-03-18T00:29:50;11.73;;;6.00;;
67751;SDS011;54551;51.068;5.826;2023-03-18T00:32:16;9.13;;;6.37;;
67751;SDS011;54551;51.068;5.826;2023-03-18T00:34:42;19.97;;;8.07;;
67751;SDS011;54551;51.068;5.826;2023-03-18T00:37:07;15.27;;;7.37;;
67751;SDS011;54551;51.068;5.826;2023-03-18T00:39:34;11.57;;;7.27;;
67751;SDS011;54551;51.068;5.826;2023-03-18T00:42:01;12.10;;;7.87;;
67751;SDS011;54551;51.068;5.826;2023-03-18T00:44:34;14.10;;;7.90;;
67751;SDS011;54551;51.068;5.826;2023-03-18T00:47:01;12.93;;;8.10;;
67751;SDS011;54551;51.068;5.826;2023-03-18T00:49:27;16.07;;;8.40;;
67751;SDS011;54551;51.068;5.826;2023-03-18T00:51:54;14.33;;;8.40;;
67751;SDS011;54551;51.068;5.826;2023-03-18T00:54:20;17.60;;;7.70;;
67751;SDS011;54551;51.068;5.826;2023-03-18T00:56:47;10.20;;;7.60;;
67751;SDS011;54551;51.068;5.826;2023-03-18T00:59:13;11.53;;;8.10;;
67751;SDS011;54551;51.068;5.826;2023-03-18T01:01:39;14.50;;;8.23;;
67751;SDS011;54551;51.068;5.826;2023-03-18T01:04:05;10.07;;;8.30;;
67751;SDS011;54551;51.068;5.826;2023-03-18T01:06:33;16.20;;;8.40;;
67751;SDS011;54551;51.068;5.826;2023-03-18T01:09:01;12.63;;;7.63;;
67751;SDS011;54551;51.068;5.826;2023-03-18T01:11:29;17.17;;;8.10;;
67751;SDS011;54551;51.068;5.826;2023-03-18T01:13:55;11.57;;;8.23;;
67751;SDS011;54551;51.068;5.826;2023-03-18T01:16:21;9.77;;;8.30;;
67751;SDS011;54551;51.068;5.826;2023-03-18T01:18:47;11.43;;;8.43;;
67751;SDS011;54551;51.068;5.826;2023-03-18T01:21:14;11.30;;;8.83;;
67751;SDS011;54551;51.068;5.826;2023-03-18T01:23:47;13.60;;;9.00;;
67751;SDS011;54551;51.068;5.826;2023-03-18T01:26:13;15.43;;;9.73;;
67751;SDS011;54551;51.068;5.826;2023-03-18T01:28:42;13.17;;;9.07;;
67751;SDS011;54551;51.068;5.826;2023-03-18T01:31:08;14.93;;;9.40;;
67751;SDS011;54551;51.068;5.826;2023-03-18T01:33:35;12.83;;;10.23;;
67751;SDS011;54551;51.068;5.826;2023-03-18T01:36:01;18.33;;;10.90;;
67751;SDS011;54551;51.068;5.826;2023-03-18T01:38:30;12.83;;;10.43;;
67751;SDS011;54551;51.068;5.826;2023-03-18T01:41:06;15.37;;;10.70;;
67751;SDS011;54551;51.068;5.826;2023-03-18T01:43:33;11.00;;;9.50;;
67751;SDS011;54551;51.068;5.826;2023-03-18T01:46:25;14.30;;;10.73;;
67751;SDS011;54551;51.068;5.826;2023-03-18T01:49:00;16.33;;;10.63;;
67751;SDS011;54551;51.068;5.826;2023-03-18T01:51:29;16.43;;;10.57;;
67751;SDS011;54551;51.068;5.826;2023-03-18T01:53:56;19.13;;;10.90;;
67751;SDS011;54551;51.068;5.826;2023-03-18T01:56:27;14.90;;;10.50;;
67751;SDS011;54551;51.068;5.826;2023-03-18T01:58:54;16.20;;;11.43;;
67751;SDS011;54551;51.068;5.826;2023-03-18T02:04:16;15.30;;;10.37;;
67751;SDS011;54551;51.068;5.826;2023-03-18T02:06:43;13.33;;;9.70;;
67751;SDS011;54551;51.068;5.826;2023-03-18T02:09:10;16.47;;;10.30;;
67751;SDS011;54551;51.068;5.826;2023-03-18T02:11:37;15.07;;;10.10;;
67751;SDS011;54551;51.068;5.826;2023-03-18T02:14:08;17.43;;;10.87;;
67751;SDS011;54551;51.068;5.826;2023-03-18T02:16:37;15.43;;;10.57;;
67751;SDS011;54551;51.068;5.826;2023-03-18T02:19:21;15.67;;;10.73;;
67751;SDS011;54551;51.068;5.826;2023-03-18T02:22:00;16.63;;;11.00;;
67751;SDS011;54551;51.068;5.826;2023-03-18T02:25:00;11.60;;;9.60;;
67751;SDS011;54551;51.068;5.826;2023-03-18T02:27:30;18.53;;;11.40;;
67751;SDS011;54551;51.068;5.826;2023-03-18T02:30:00;14.23;;;10.17;;
67751;SDS011;54551;51.068;5.826;2023-03-18T02:32:34;19.73;;;11.80;;
67751;SDS011;54551;51.068;5.826;2023-03-18T02:35:03;14.83;;;10.77;;
67751;SDS011;54551;51.068;5.826;2023-03-18T02:37:33;14.87;;;11.23;;
67751;SDS011;54551;51.068;5.826;2023-03-18T02:40:13;14.53;;;10.60;;
67751;SDS011;54551;51.068;5.826;2023-03-18T02:42:51;16.57;;;11.50;;
67751;SDS011;54551;51.068;5.826;2023-03-18T02:45:29;14.63;;;10.77;;
67751;SDS011;54551;51.068;5.826;2023-03-18T02:48:11;14.50;;;11.80;;
67751;SDS011;54551;51.068;5.826;2023-03-18T02:50:42;14.93;;;11.23;;
67751;SDS011;54551;51.068;5.826;2023-03-18T02:53:10;15.37;;;10.60;;
67751;SDS011;54551;51.068;5.826;2023-03-18T02:55:37;13.90;;;10.57;;
67751;SDS011;54551;51.068;5.826;2023-03-18T02:58:03;12.90;;;9.80;;
67751;SDS011;54551;51.068;5.826;2023-03-18T03:00:29;14.17;;;11.00;;
67751;SDS011;54551;51.068;5.826;2023-03-18T03:02:56;14.07;;;10.43;;
67751;SDS011;54551;51.068;5.826;2023-03-18T03:05:22;11.63;;;10.40;;
67751;SDS011;54551;51.068;5.826;2023-03-18T03:07:48;13.40;;;10.93;;
67751;SDS011;54551;51.068;5.826;2023-03-18T03:10:14;13.60;;;11.13;;
67751;SDS011;54551;51.068;5.826;2023-03-18T03:12:42;16.67;;;10.90;;
67751;SDS011;54551;51.068;5.826;2023-03-18T03:15:10;14.27;;;11.70;;
67751;SDS011;54551;51.068;5.826;2023-03-18T03:17:42;16.97;;;12.03;;
67751;SDS011;54551;51.068;5.826;2023-03-18T03:20:08;16.93;;;11.63;;
67751;SDS011;54551;51.068;5.826;2023-03-18T03:22:35;18.90;;;12.40;;
67751;SDS011;54551;51.068;5.826;2023-03-18T03:25:01;16.90;;;12.07;;
67751;SDS011;54551;51.068;5.826;2023-03-18T03:27:27;16.70;;;11.33;;
67751;SDS011;54551;51.068;5.826;2023-03-18T03:29:54;16.43;;;11.57;;
67751;SDS011;54551;51.068;5.826;2023-03-18T03:32:20;15.87;;;11.70;;
67751;SDS011;54551;51.068;5.826;2023-03-18T03:34:48;20.80;;;11.77;;
67751;SDS011;54551;51.068;5.826;2023-03-18T03:37:14;13.80;;;11.63;;
67751;SDS011;54551;51.068;5.826;2023-03-18T03:39:40;18.27;;;12.10;;
67751;SDS011;54551;51.068;5.826;2023-03-18T03:42:07;11.87;;;10.50;;
67751;SDS011;54551;51.068;5.826;2023-03-18T03:44:33;17.90;;;12.13;;
67751;SDS011;54551;51.068;5.826;2023-03-18T03:46:59;13.70;;;11.07;;
67751;SDS011;54551;51.068;5.826;2023-03-18T03:49:25;15.77;;;11.30;;
67751;SDS011;54551;51.068;5.826;2023-03-18T03:51:51;14.20;;;11.27;;
67751;SDS011;54551;51.068;5.826;2023-03-18T03:54:18;15.57;;;12.07;;
67751;SDS011;54551;51.068;5.826;2023-03-18T03:56:45;15.27;;;11.73;;
67751;SDS011;54551;51.068;5.826;2023-03-18T03:59:12;13.57;;;11.63;;
67751;SDS011;54551;51.068;5.826;2023-03-18T04:02:07;13.20;;;11.80;;
67751;SDS011;54551;51.068;5.826;2023-03-18T04:04:33;18.63;;;12.80;;
67751;SDS011;54551;51.068;5.826;2023-03-18T04:07:00;15.00;;;11.67;;
67751;SDS011;54551;51.068;5.826;2023-03-18T04:09:28;14.00;;;11.80;;
67751;SDS011;54551;51.068;5.826;2023-03-18T04:11:54;15.57;;;10.87;;
67751;SDS011;54551;51.068;5.826;2023-03-18T04:14:21;16.77;;;12.53;;
67751;SDS011;54551;51.068;5.826;2023-03-18T04:16:47;15.67;;;12.00;;
67751;SDS011;54551;51.068;5.826;2023-03-18T04:19:13;16.00;;;11.83;;
67751;SDS011;54551;51.068;5.826;2023-03-18T04:21:39;14.03;;;11.57;;
67751;SDS011;54551;51.068;5.826;2023-03-18T04:24:05;15.37;;;11.43;;
67751;SDS011;54551;51.068;5.826;2023-03-18T04:26:31;15.47;;;11.70;;
67751;SDS011;54551;51.068;5.826;2023-03-18T04:29:00;13.23;;;11.73;;
67751;SDS011;54551;51.068;5.826;2023-03-18T04:31:28;15.07;;;11.93;;
67751;SDS011;54551;51.068;5.826;2023-03-18T04:33:54;12.43;;;11.13;;
67751;SDS011;54551;51.068;5.826;2023-03-18T04:36:20;17.73;;;11.87;;
67751;SDS011;54551;51.068;5.826;2023-03-18T04:38:46;14.17;;;11.60;;
67751;SDS011;54551;51.068;5.826;2023-03-18T04:41:12;15.10;;;11.57;;
67751;SDS011;54551;51.068;5.826;2023-03-18T04:43:38;12.47;;;11.17;;
67751;SDS011;54551;51.068;5.826;2023-03-18T04:46:05;14.23;;;11.37;;
67751;SDS011;54551;51.068;5.826;2023-03-18T04:48:32;14.57;;;12.93;;
67751;SDS011;54551;51.068;5.826;2023-03-18T04:51:01;12.80;;;11.00;;
67751;SDS011;54551;51.068;5.826;2023-03-18T04:53:29;13.53;;;12.00;;
67751;SDS011;54551;51.068;5.826;2023-03-18T04:55:56;12.07;;;10.47;;
67751;SDS011;54551;51.068;5.826;2023-03-18T04:58:28;13.47;;;11.90;;
67751;SDS011;54551;51.068;5.826;2023-03-18T05:01:02;13.70;;;12.30;;
67751;SDS011;54551;51.068;5.826;2023-03-18T05:03:33;14.27;;;11.70;;
67751;SDS011;54551;51.068;5.826;2023-03-18T05:05:59;14.10;;;12.47;;
67751;SDS011;54551;51.068;5.826;2023-03-18T05:08:35;14.40;;;12.90;;
67751;SDS011;54551;51.068;5.826;2023-03-18T05:11:01;13.50;;;12.13;;
67751;SDS011;54551;51.068;5.826;2023-03-18T05:13:28;13.27;;;11.93;;
67751;SDS011;54551;51.068;5.826;2023-03-18T05:15:54;16.43;;;12.30;;
67751;SDS011;54551;51.068;5.826;2023-03-18T05:18:20;13.77;;;12.40;;
67751;SDS011;54551;51.068;5.826;2023-03-18T05:20:48;14.37;;;12.37;;
67751;SDS011;54551;51.068;5.826;2023-03-18T05:23:16;14.00;;;12.20;;
67751;SDS011;54551;51.068;5.826;2023-03-18T05:25:48;13.57;;;12.23;;
67751;SDS011;54551;51.068;5.826;2023-03-18T05:28:15;14.20;;;11.93;;
67751;SDS011;54551;51.068;5.826;2023-03-18T05:30:54;12.20;;;11.00;;
67751;SDS011;54551;51.068;5.826;2023-03-18T05:33:21;13.10;;;11.90;;
67751;SDS011;54551;51.068;5.826;2023-03-18T05:35:52;14.63;;;13.17;;
67751;SDS011;54551;51.068;5.826;2023-03-18T05:38:22;13.57;;;11.80;;
67751;SDS011;54551;51.068;5.826;2023-03-18T05:40:48;12.60;;;11.27;;
67751;SDS011;54551;51.068;5.826;2023-03-18T05:43:20;12.97;;;11.67;;
67751;SDS011;54551;51.068;5.826;2023-03-18T05:45:51;15.70;;;11.93;;
67751;SDS011;54551;51.068;5.826;2023-03-18T05:48:22;14.77;;;11.70;;
67751;SDS011;54551;51.068;5.826;2023-03-18T05:50:52;13.30;;;10.57;;
67751;SDS011;54551;51.068;5.826;2023-03-18T05:53:23;11.77;;;10.67;;
67751;SDS011;54551;51.068;5.826;2023-03-18T05:55:56;12.73;;;10.60;;
67751;SDS011;54551;51.068;5.826;2023-03-18T05:58:23;11.60;;;10.40;;
67751;SDS011;54551;51.068;5.826;2023-03-18T06:00:54;14.40;;;10.07;;
67751;SDS011;54551;51.068;5.826;2023-03-18T06:03:20;13.07;;;9.60;;
67751;SDS011;54551;51.068;5.826;2023-03-18T06:05:46;11.87;;;8.80;;
67751;SDS011;54551;51.068;5.826;2023-03-18T06:08:13;10.47;;;8.90;;
67751;SDS011;54551;51.068;5.826;2023-03-18T06:10:40;10.63;;;8.87;;
67751;SDS011;54551;51.068;5.826;2023-03-18T06:13:06;9.93;;;8.60;;
67751;SDS011;54551;51.068;5.826;2023-03-18T06:15:34;10.87;;;7.60;;
67751;SDS011;54551;51.068;5.826;2023-03-18T06:18:00;8.70;;;7.80;;
67751;SDS011;54551;51.068;5.826;2023-03-18T06:20:27;8.60;;;7.53;;
67751;SDS011;54551;51.068;5.826;2023-03-18T06:22:53;8.70;;;7.37;;
67751;SDS011;54551;51.068;5.826;2023-03-18T06:25:21;8.47;;;7.37;;
67751;SDS011;54551;51.068;5.826;2023-03-18T06:27:49;9.20;;;7.17;;
67751;SDS011;54551;51.068;5.826;2023-03-18T06:30:17;9.03;;;7.57;;
67751;SDS011;54551;51.068;5.826;2023-03-18T06:32:43;8.30;;;7.40;;
67751;SDS011;54551;51.068;5.826;2023-03-18T06:35:10;8.83;;;7.17;;
67751;SDS011;54551;51.068;5.826;2023-03-18T06:37:37;7.50;;;6.80;;
67751;SDS011;54551;51.068;5.826;2023-03-18T06:40:05;9.13;;;7.03;;
67751;SDS011;54551;51.068;5.826;2023-03-18T06:42:32;8.03;;;7.23;;
67751;SDS011;54551;51.068;5.826;2023-03-18T06:45:06;8.83;;;7.80;;
67751;SDS011;54551;51.068;5.826;2023-03-18T06:47:53;8.57;;;7.63;;
67751;SDS011;54551;51.068;5.826;2023-03-18T06:50:21;8.23;;;7.40;;
67751;SDS011;54551;51.068;5.826;2023-03-18T06:52:48;9.37;;;7.47;;
67751;SDS011;54551;51.068;5.826;2023-03-18T06:55:17;11.13;;;8.53;;
67751;SDS011;54551;51.068;5.826;2023-03-18T06:57:44;8.90;;;7.33;;
67751;SDS011;54551;51.068;5.826;2023-03-18T07:00:13;9.10;;;7.57;;
67751;SDS011;54551;51.068;5.826;2023-03-18T07:02:40;11.27;;;7.50;;
67751;SDS011;54551;51.068;5.826;2023-03-18T07:05:08;9.63;;;7.87;;
67751;SDS011;54551;51.068;5.826;2023-03-18T07:07:35;9.73;;;7.60;;
67751;SDS011;54551;51.068;5.826;2023-03-18T07:10:04;9.67;;;7.60;;
67751;SDS011;54551;51.068;5.826;2023-03-18T07:12:32;8.17;;;7.27;;
67751;SDS011;54551;51.068;5.826;2023-03-18T07:14:58;9.37;;;7.60;;
67751;SDS011;54551;51.068;5.826;2023-03-18T07:17:24;7.90;;;7.10;;
67751;SDS011;54551;51.068;5.826;2023-03-18T07:19:50;11.23;;;6.97;;
67751;SDS011;54551;51.068;5.826;2023-03-18T07:22:17;8.27;;;7.43;;
67751;SDS011;54551;51.068;5.826;2023-03-18T07:24:43;10.10;;;7.40;;
67751;SDS011;54551;51.068;5.826;2023-03-18T07:27:10;8.13;;;6.83;;
67751;SDS011;54551;51.068;5.826;2023-03-18T07:29:37;10.43;;;7.33;;
67751;SDS011;54551;51.068;5.826;2023-03-18T07:32:03;8.30;;;6.77;;
67751;SDS011;54551;51.068;5.826;2023-03-18T07:34:30;10.53;;;6.93;;
67751;SDS011;54551;51.068;5.826;2023-03-18T07:36:56;9.77;;;6.57;;
67751;SDS011;54551;51.068;5.826;2023-03-18T07:39:23;8.57;;;6.90;;
67751;SDS011;54551;51.068;5.826;2023-03-18T07:41:49;9.40;;;6.20;;
67751;SDS011;54551;51.068;5.826;2023-03-18T07:44:20;6.63;;;5.93;;
67751;SDS011;54551;51.068;5.826;2023-03-18T07:46:47;6.00;;;5.40;;
67751;SDS011;54551;51.068;5.826;2023-03-18T07:49:13;8.30;;;5.70;;
67751;SDS011;54551;51.068;5.826;2023-03-18T07:51:39;7.30;;;5.70;;
67751;SDS011;54551;51.068;5.826;2023-03-18T07:54:05;8.73;;;5.60;;
67751;SDS011;54551;51.068;5.826;2023-03-18T07:56:30;7.07;;;5.20;;
67751;SDS011;54551;51.068;5.826;2023-03-18T07:58:57;7.73;;;4.87;;
67751;SDS011;54551;51.068;5.826;2023-03-18T08:01:23;7.67;;;5.17;;
67751;SDS011;54551;51.068;5.826;2023-03-18T08:03:49;8.17;;;5.20;;
67751;SDS011;54551;51.068;5.826;2023-03-18T08:06:15;7.03;;;5.33;;
67751;SDS011;54551;51.068;5.826;2023-03-18T08:08:41;7.83;;;5.70;;
67751;SDS011;54551;51.068;5.826;2023-03-18T08:11:08;5.70;;;5.20;;
67751;SDS011;54551;51.068;5.826;2023-03-18T08:13:35;7.80;;;5.20;;
67751;SDS011;54551;51.068;5.826;2023-03-18T08:16:03;5.57;;;4.07;;
67751;SDS011;54551;51.068;5.826;2023-03-18T08:18:29;8.50;;;5.03;;
67751;SDS011;54551;51.068;5.826;2023-03-18T08:20:55;8.50;;;5.40;;
67751;SDS011;54551;51.068;5.826;2023-03-18T08:23:21;5.20;;;4.00;;
67751;SDS011;54551;51.068;5.826;2023-03-18T08:25:48;4.70;;;4.20;;
67751;SDS011;54551;51.068;5.826;2023-03-18T08:28:15;4.73;;;3.97;;
67751;SDS011;54551;51.068;5.826;2023-03-18T08:30:41;5.87;;;4.20;;
67751;SDS011;54551;51.068;5.826;2023-03-18T08:33:07;4.83;;;4.37;;
67751;SDS011;54551;51.068;5.826;2023-03-18T08:35:33;5.77;;;3.83;;
67751;SDS011;54551;51.068;5.826;2023-03-18T08:37:59;4.17;;;3.77;;
67751;SDS011;54551;51.068;5.826;2023-03-18T08:40:26;4.50;;;4.10;;
67751;SDS011;54551;51.068;5.826;2023-03-18T08:42:52;5.30;;;4.37;;
67751;SDS011;54551;51.068;5.826;2023-03-18T08:45:18;4.60;;;4.07;;
67751;SDS011;54551;51.068;5.826;2023-03-18T08:47:45;7.07;;;4.63;;
67751;SDS011;54551;51.068;5.826;2023-03-18T08:50:11;5.80;;;4.30;;
67751;SDS011;54551;51.068;5.826;2023-03-18T08:52:38;4.33;;;3.83;;
67751;SDS011;54551;51.068;5.826;2023-03-18T08:55:06;5.20;;;3.70;;
67751;SDS011;54551;51.068;5.826;2023-03-18T08:57:33;5.27;;;4.33;;
67751;SDS011;54551;51.068;5.826;2023-03-18T08:59:59;6.53;;;4.23;;
67751;SDS011;54551;51.068;5.826;2023-03-18T09:02:25;5.20;;;3.63;;
67751;SDS011;54551;51.068;5.826;2023-03-18T09:04:52;5.30;;;4.20;;
67751;SDS011;54551;51.068;5.826;2023-03-18T09:07:19;4.90;;;3.50;;
67751;SDS011;54551;51.068;5.826;2023-03-18T09:09:45;4.90;;;3.40;;
67751;SDS011;54551;51.068;5.826;2023-03-18T09:12:11;5.20;;;3.80;;
67751;SDS011;54551;51.068;5.826;2023-03-18T09:14:38;4.00;;;3.40;;
67751;SDS011;54551;51.068;5.826;2023-03-18T09:17:08;4.93;;;3.08;;
67751;SDS011;54551;51.068;5.826;2023-03-18T09:19:34;3.45;;;3.05;;
67751;SDS011;54551;51.068;5.826;2023-03-18T09:22:00;4.95;;;3.20;;
67751;SDS011;54551;51.068;5.826;2023-03-18T09:24:26;5.97;;;3.35;;
67751;SDS011;54551;51.068;5.826;2023-03-18T09:26:52;5.70;;;3.05;;
67751;SDS011;54551;51.068;5.826;2023-03-18T09:29:18;3.63;;;3.15;;
67751;SDS011;54551;51.068;5.826;2023-03-18T09:31:44;3.92;;;3.03;;
67751;SDS011;54551;51.068;5.826;2023-03-18T09:34:11;3.80;;;2.95;;
67751;SDS011;54551;51.068;5.826;2023-03-18T09:36:38;2.67;;;2.30;;
67751;SDS011;54551;51.068;5.826;2023-03-18T09:39:05;3.88;;;2.50;;
67751;SDS011;54551;51.068;5.826;2023-03-18T09:44:54;2.95;;;2.63;;
67751;SDS011;54551;51.068;5.826;2023-03-18T09:50:50;3.20;;;2.30;;
67751;SDS011;54551;51.068;5.826;2023-03-18T09:53:30;3.90;;;2.50;;
67751;SDS011;54551;51.068;5.826;2023-03-18T09:56:30;2.70;;;2.50;;
67751;SDS011;54551;51.068;5.826;2023-03-18T09:59:15;2.83;;;2.47;;
67751;SDS011;54551;51.068;5.826;2023-03-18T10:01:46;2.65;;;2.40;;
67751;SDS011;54551;51.068;5.826;2023-03-18T10:04:19;3.72;;;2.90;;
67751;SDS011;54551;51.068;5.826;2023-03-18T10:06:57;2.70;;;2.40;;
67751;SDS011;54551;51.068;5.826;2023-03-18T10:15:09;3.30;;;2.20;;
67751;SDS011;54551;51.068;5.826;2023-03-18T10:18:04;3.28;;;2.42;;
67751;SDS011;54551;51.068;5.826;2023-03-18T10:23:30;4.03;;;2.50;;
67751;SDS011;54551;51.068;5.826;2023-03-18T10:34:22;2.47;;;1.95;;
67751;SDS011;54551;51.068;5.826;2023-03-18T10:37:05;2.65;;;1.90;;
67751;SDS011;54551;51.068;5.826;2023-03-18T10:39:51;2.38;;;2.17;;
67751;SDS011;54551;51.068;5.826;2023-03-18T10:42:22;3.28;;;1.90;;
67751;SDS011;54551;51.068;5.826;2023-03-18T10:44:55;4.23;;;1.90;;
67751;SDS011;54551;51.068;5.826;2023-03-18T10:47:51;2.70;;;1.80;;
67751;SDS011;54551;51.068;5.826;2023-03-18T10:50:30;4.50;;;2.00;;
67751;SDS011;54551;51.068;5.826;2023-03-18T10:55:29;2.03;;;1.63;;
67751;SDS011;54551;51.068;5.826;2023-03-18T10:58:06;1.53;;;1.43;;
67751;SDS011;54551;51.068;5.826;2023-03-18T11:00:39;2.67;;;1.80;;
67751;SDS011;54551;51.068;5.826;2023-03-18T11:03:05;2.70;;;1.90;;
67751;SDS011;54551;51.068;5.826;2023-03-18T11:05:41;1.90;;;1.60;;
67751;SDS011;54551;51.068;5.826;2023-03-18T11:08:07;2.80;;;2.00;;
67751;SDS011;54551;51.068;5.826;2023-03-18T11:13:53;3.73;;;1.80;;
67751;SDS011;54551;51.068;5.826;2023-03-18T11:16:27;2.27;;;1.70;;
67751;SDS011;54551;51.068;5.826;2023-03-18T11:18:54;2.27;;;1.13;;
67751;SDS011;54551;51.068;5.826;2023-03-18T11:21:22;2.43;;;1.20;;
67751;SDS011;54551;51.068;5.826;2023-03-18T11:23:51;1.73;;;1.37;;
67751;SDS011;54551;51.068;5.826;2023-03-18T11:26:36;2.27;;;1.43;;
67751;SDS011;54551;51.068;5.826;2023-03-18T11:29:14;3.43;;;1.50;;
67751;SDS011;54551;51.068;5.826;2023-03-18T11:31:50;2.90;;;1.37;;
67751;SDS011;54551;51.068;5.826;2023-03-18T11:34:26;5.13;;;1.73;;
67751;SDS011;54551;51.068;5.826;2023-03-18T11:36:59;2.40;;;1.40;;
67751;SDS011;54551;51.068;5.826;2023-03-18T11:39:30;2.47;;;1.60;;
67751;SDS011;54551;51.068;5.826;2023-03-18T11:41:59;1.97;;;1.60;;
67751;SDS011;54551;51.068;5.826;2023-03-18T11:44:30;2.27;;;1.50;;
67751;SDS011;54551;51.068;5.826;2023-03-18T11:49:26;3.03;;;1.70;;
67751;SDS011;54551;51.068;5.826;2023-03-18T11:57:25;4.17;;;1.90;;
67751;SDS011;54551;51.068;5.826;2023-03-18T12:02:40;3.47;;;1.40;;
67751;SDS011;54551;51.068;5.826;2023-03-18T12:08:10;1.93;;;1.33;;
67751;SDS011;54551;51.068;5.826;2023-03-18T12:10:56;2.97;;;1.30;;
67751;SDS011;54551;51.068;5.826;2023-03-18T12:19:08;2.47;;;1.20;;
67751;SDS011;54551;51.068;5.826;2023-03-18T12:24:12;2.13;;;1.47;;
67751;SDS011;54551;51.068;5.826;2023-03-18T12:26:57;3.13;;;1.60;;
67751;SDS011;54551;51.068;5.826;2023-03-18T12:32:24;2.37;;;1.53;;
67751;SDS011;54551;51.068;5.826;2023-03-18T12:46:14;4.20;;;1.73;;
67751;SDS011;54551;51.068;5.826;2023-03-18T12:49:17;3.60;;;1.90;;
67751;SDS011;54551;51.068;5.826;2023-03-18T12:51:48;3.03;;;1.80;;
67751;SDS011;54551;51.068;5.826;2023-03-18T12:54:31;4.40;;;1.80;;
67751;SDS011;54551;51.068;5.826;2023-03-18T12:57:04;2.43;;;1.60;;
67751;SDS011;54551;51.068;5.826;2023-03-18T13:04:46;3.03;;;1.83;;
67751;SDS011;54551;51.068;5.826;2023-03-18T13:07:23;5.60;;;2.33;;
67751;SDS011;54551;51.068;5.826;2023-03-18T13:10:06;3.83;;;2.10;;
67751;SDS011;54551;51.068;5.826;2023-03-18T13:12:37;3.30;;;1.60;;
67751;SDS011;54551;51.068;5.826;2023-03-18T13:18:02;5.80;;;2.20;;
67751;SDS011;54551;51.068;5.826;2023-03-18T13:20:37;2.87;;;2.00;;
67751;SDS011;54551;51.068;5.826;2023-03-18T13:23:24;3.50;;;1.93;;
67751;SDS011;54551;51.068;5.826;2023-03-18T13:26:24;6.80;;;1.87;;
67751;SDS011;54551;51.068;5.826;2023-03-18T13:43:02;4.47;;;2.25;;
67751;SDS011;54551;51.068;5.826;2023-03-18T13:45:31;3.83;;;2.20;;
67751;SDS011;54551;51.068;5.826;2023-03-18T13:48:06;3.83;;;2.10;;
67751;SDS011;54551;51.068;5.826;2023-03-18T13:50:41;4.43;;;2.00;;
67751;SDS011;54551;51.068;5.826;2023-03-18T13:53:24;3.97;;;2.33;;
67751;SDS011;54551;51.068;5.826;2023-03-18T13:58:53;5.60;;;2.50;;
67751;SDS011;54551;51.068;5.826;2023-03-18T14:01:14;3.27;;;2.00;;
67751;SDS011;54551;51.068;5.826;2023-03-18T14:03:58;3.77;;;2.00;;
67751;SDS011;54551;51.068;5.826;2023-03-18T14:12:01;4.83;;;2.30;;
67751;SDS011;54551;51.068;5.826;2023-03-18T14:17:51;6.63;;;2.50;;
67751;SDS011;54551;51.068;5.826;2023-03-18T14:20:22;3.88;;;2.33;;
67751;SDS011;54551;51.068;5.826;2023-03-18T14:23:31;3.78;;;2.25;;
67751;SDS011;54551;51.068;5.826;2023-03-18T14:26:00;3.77;;;2.10;;
67751;SDS011;54551;51.068;5.826;2023-03-18T14:28:35;6.47;;;2.40;;
67751;SDS011;54551;51.068;5.826;2023-03-18T14:33:51;3.30;;;1.40;;
67751;SDS011;54551;51.068;5.826;2023-03-18T14:36:47;2.43;;;1.87;;
67751;SDS011;54551;51.068;5.826;2023-03-18T14:39:37;3.57;;;1.70;;
67751;SDS011;54551;51.068;5.826;2023-03-18T14:42:11;3.40;;;1.70;;
67751;SDS011;54551;51.068;5.826;2023-03-18T14:44:49;1.77;;;1.40;;
67751;SDS011;54551;51.068;5.826;2023-03-18T14:50:40;3.67;;;1.10;;
67751;SDS011;54551;51.068;5.826;2023-03-18T14:55:47;2.87;;;1.40;;
67751;SDS011;54551;51.068;5.826;2023-03-18T14:58:16;1.70;;;1.10;;
67751;SDS011;54551;51.068;5.826;2023-03-18T15:00:45;1.97;;;1.20;;
67751;SDS011;54551;51.068;5.826;2023-03-18T15:03:15;2.57;;;1.30;;
67751;SDS011;54551;51.068;5.826;2023-03-18T15:05:58;1.97;;;1.40;;
67751;SDS011;54551;51.068;5.826;2023-03-18T15:08:27;2.43;;;1.30;;
67751;SDS011;54551;51.068;5.826;2023-03-18T15:10:54;3.77;;;1.20;;
67751;SDS011;54551;51.068;5.826;2023-03-18T15:13:22;2.23;;;1.37;;
67751;SDS011;54551;51.068;5.826;2023-03-18T15:15:51;2.03;;;1.10;;
67751;SDS011;54551;51.068;5.826;2023-03-18T15:20:54;1.70;;;1.13;;
67751;SDS011;54551;51.068;5.826;2023-03-18T15:23:29;2.13;;;1.37;;
67751;SDS011;54551;51.068;5.826;2023-03-18T15:26:00;3.57;;;1.50;;
67751;SDS011;54551;51.068;5.826;2023-03-18T15:28:48;2.70;;;1.40;;
67751;SDS011;54551;51.068;5.826;2023-03-18T15:31:29;5.90;;;1.43;;
67751;SDS011;54551;51.068;5.826;2023-03-18T15:36:44;1.77;;;1.20;;
67751;SDS011;54551;51.068;5.826;2023-03-18T15:41:56;2.40;;;1.20;;
67751;SDS011;54551;51.068;5.826;2023-03-18T15:44:25;1.93;;;1.17;;
67751;SDS011;54551;51.068;5.826;2023-03-18T15:46:54;1.60;;;1.13;;
67751;SDS011;54551;51.068;5.826;2023-03-18T15:49:30;2.67;;;1.30;;
67751;SDS011;54551;51.068;5.826;2023-03-18T15:51:57;2.10;;;1.17;;
67751;SDS011;54551;51.068;5.826;2023-03-18T15:54:26;2.17;;;1.10;;
67751;SDS011;54551;51.068;5.826;2023-03-18T15:57:09;1.93;;;1.00;;
67751;SDS011;54551;51.068;5.826;2023-03-18T15:59:37;4.57;;;1.23;;
67751;SDS011;54551;51.068;5.826;2023-03-18T16:02:11;2.13;;;1.30;;
67751;SDS011;54551;51.068;5.826;2023-03-18T16:04:40;2.10;;;1.40;;
67751;SDS011;54551;51.068;5.826;2023-03-18T16:07:18;2.03;;;1.17;;
67751;SDS011;54551;51.068;5.826;2023-03-18T16:09:48;2.47;;;1.40;;
67751;SDS011;54551;51.068;5.826;2023-03-18T16:12:16;2.37;;;1.30;;
67751;SDS011;54551;51.068;5.826;2023-03-18T16:14:45;3.83;;;1.40;;
67751;SDS011;54551;51.068;5.826;2023-03-18T16:17:13;2.40;;;1.30;;
67751;SDS011;54551;51.068;5.826;2023-03-18T16:19:41;2.57;;;1.87;;
67751;SDS011;54551;51.068;5.826;2023-03-18T16:22:08;2.60;;;1.57;;
67751;SDS011;54551;51.068;5.826;2023-03-18T16:24:34;1.93;;;1.20;;
67751;SDS011;54551;51.068;5.826;2023-03-18T16:27:02;3.10;;;1.40;;
67751;SDS011;54551;51.068;5.826;2023-03-18T16:29:30;1.27;;;1.00;;
67751;SDS011;54551;51.068;5.826;2023-03-18T16:32:01;2.20;;;1.33;;
67751;SDS011;54551;51.068;5.826;2023-03-18T16:34:27;2.07;;;1.30;;
67751;SDS011;54551;51.068;5.826;2023-03-18T16:36:53;4.50;;;1.40;;
67751;SDS011;54551;51.068;5.826;2023-03-18T16:39:24;2.50;;;1.40;;
67751;SDS011;54551;51.068;5.826;2023-03-18T16:41:53;3.47;;;1.20;;
67751;SDS011;54551;51.068;5.826;2023-03-18T16:44:20;2.03;;;1.47;;
67751;SDS011;54551;51.068;5.826;2023-03-18T16:46:48;2.83;;;1.10;;
67751;SDS011;54551;51.068;5.826;2023-03-18T16:49:25;2.30;;;1.23;;
67751;SDS011;54551;51.068;5.826;2023-03-18T16:51:55;1.37;;;1.00;;
67751;SDS011;54551;51.068;5.826;2023-03-18T16:54:23;2.43;;;1.40;;